createdAt,value
2018-01-16T00:00:18.804Z,8.10
2018-01-16T00:02:46.249Z,5.28
2018-01-16T00:05:17.606Z,6.00
2018-01-16T00:07:45.720Z,5.00
2018-01-16T00:10:13.203Z,6.83
2018-01-16T00:12:40.710Z,7.10
2018-01-16T00:15:08.189Z,6.07
2018-01-16T00:17:36.416Z,6.63
2018-01-16T00:20:08.251Z,6.32
2018-01-16T00:22:41.520Z,6.73
2018-01-16T00:25:09.041Z,5.20
2018-01-16T00:27:36.482Z,5.77
2018-01-16T00:30:03.994Z,5.85
2018-01-16T00:32:31.590Z,6.00
2018-01-16T00:34:59.070Z,6.30
2018-01-16T00:37:26.552Z,6.60
2018-01-16T00:39:54.872Z,5.20
2018-01-16T00:42:22.320Z,6.00
2018-01-16T00:44:49.798Z,4.87
2018-01-16T00:47:17.250Z,5.43
2018-01-16T00:49:44.705Z,6.10
2018-01-16T00:52:12.277Z,5.17
2018-01-16T00:54:39.737Z,6.50
2018-01-16T00:57:07.197Z,6.23
2018-01-16T00:59:34.672Z,5.90
2018-01-16T01:02:02.133Z,5.40
2018-01-16T01:04:29.596Z,6.70
2018-01-16T01:06:57.992Z,6.20
2018-01-16T01:09:26.213Z,6.73
2018-01-16T01:11:53.653Z,5.70
2018-01-16T01:14:21.483Z,6.32
2018-01-16T01:16:48.924Z,4.47
2018-01-16T01:19:17.000Z,4.73
2018-01-16T01:21:48.437Z,4.80
2018-01-16T01:24:15.900Z,5.63
2018-01-16T01:26:43.344Z,6.03
2018-01-16T01:29:10.821Z,6.27
2018-01-16T01:31:38.295Z,5.07
2018-01-16T01:34:07.226Z,5.00
2018-01-16T01:36:38.105Z,5.13
2018-01-16T01:39:05.545Z,4.90
2018-01-16T01:41:33.018Z,5.57
2018-01-16T01:44:00.449Z,5.62
2018-01-16T01:46:27.928Z,4.68
2018-01-16T01:49:07.702Z,4.25
2018-01-16T01:51:39.729Z,4.37
2018-01-16T01:54:07.172Z,4.30
2018-01-16T01:56:34.641Z,3.87
2018-01-16T01:59:03.816Z,3.97
2018-01-16T02:01:31.280Z,2.93
2018-01-16T02:03:58.735Z,3.97
2018-01-16T02:06:26.220Z,3.90
2018-01-16T02:08:53.668Z,3.70
2018-01-16T02:11:22.064Z,3.77
2018-01-16T02:13:49.516Z,3.10
2018-01-16T02:16:16.971Z,4.17
2018-01-16T02:18:44.461Z,3.75
2018-01-16T02:21:11.922Z,3.58
2018-01-16T02:23:39.365Z,4.00
2018-01-16T02:26:07.625Z,3.97
2018-01-16T02:28:35.076Z,4.67
2018-01-16T02:31:02.588Z,3.80
2018-01-16T02:33:30.679Z,2.88
2018-01-16T02:35:58.169Z,3.20
2018-01-16T02:38:26.404Z,3.33
2018-01-16T02:40:53.884Z,3.80
2018-01-16T02:43:21.448Z,4.03
2018-01-16T02:45:50.417Z,4.25
2018-01-16T02:48:17.897Z,3.92
2018-01-16T02:50:45.348Z,3.83
2018-01-16T02:53:12.921Z,3.13
2018-01-16T02:55:43.345Z,3.70
2018-01-16T02:58:10.808Z,3.37
2018-01-16T03:00:39.865Z,3.35
2018-01-16T03:03:07.324Z,3.72
2018-01-16T03:05:34.805Z,2.87
2018-01-16T03:08:02.276Z,4.93
2018-01-16T03:10:29.717Z,4.03
2018-01-16T03:12:57.185Z,4.20
2018-01-16T03:15:24.629Z,3.33
2018-01-16T03:17:52.114Z,3.73
2018-01-16T03:20:19.607Z,3.40
2018-01-16T03:22:47.716Z,3.50
2018-01-16T03:25:15.184Z,4.47
2018-01-16T03:27:42.653Z,3.50
2018-01-16T03:30:10.906Z,3.70
2018-01-16T03:32:38.576Z,4.40
2018-01-16T03:35:06.730Z,3.15
2018-01-16T03:37:34.140Z,3.40
2018-01-16T03:40:01.604Z,3.70
2018-01-16T03:42:29.113Z,3.90
2018-01-16T03:44:56.584Z,3.47
2018-01-16T03:47:24.020Z,3.70
2018-01-16T03:49:51.522Z,3.03
2018-01-16T03:52:19.128Z,3.07
2018-01-16T03:54:50.085Z,2.85
2018-01-16T03:57:17.744Z,2.40
2018-01-16T03:59:45.192Z,2.30
2018-01-16T04:02:12.672Z,2.70
2018-01-16T04:04:40.112Z,3.10
2018-01-16T04:07:07.565Z,3.50
2018-01-16T04:09:38.914Z,2.85
2018-01-16T04:12:06.356Z,2.90
2018-01-16T04:14:34.588Z,4.12
2018-01-16T04:17:02.111Z,2.67
2018-01-16T04:19:29.568Z,2.93
2018-01-16T04:21:57.025Z,3.53
2018-01-16T04:24:27.882Z,2.60
2018-01-16T04:26:55.380Z,2.63
2018-01-16T04:29:22.835Z,2.60
2018-01-16T04:31:50.304Z,1.80
2018-01-16T04:34:18.671Z,2.28
2018-01-16T04:36:46.148Z,2.50
2018-01-16T04:39:13.733Z,1.70
2018-01-16T04:41:41.995Z,2.47
2018-01-16T04:44:09.444Z,2.50
2018-01-16T04:46:37.591Z,1.80
2018-01-16T04:49:05.091Z,2.15
2018-01-16T04:51:32.540Z,2.07
2018-01-16T04:54:00.037Z,2.43
2018-01-16T04:56:27.568Z,1.50
2018-01-16T04:58:55.093Z,2.27
2018-01-16T05:01:22.535Z,1.60
2018-01-16T05:03:50.004Z,1.00
2018-01-16T05:06:17.454Z,2.10
2018-01-16T05:08:44.932Z,1.00
2018-01-16T05:11:12.725Z,0.80
2018-01-16T05:13:40.834Z,0.90
2018-01-16T05:16:09.069Z,0.90
2018-01-16T05:18:36.666Z,1.07
2018-01-16T05:21:07.351Z,1.00
2018-01-16T05:23:35.748Z,1.15
2018-01-16T05:26:03.237Z,1.15
2018-01-16T05:28:30.876Z,1.77
2018-01-16T05:33:32.288Z,1.80
2018-01-16T05:36:00.671Z,1.40
2018-01-16T05:38:28.188Z,1.70
2018-01-16T05:40:55.636Z,1.63
2018-01-16T05:43:23.093Z,1.00
2018-01-16T05:45:50.933Z,2.37
2018-01-16T05:48:18.499Z,1.35
2018-01-16T05:50:46.282Z,1.95
2018-01-16T05:53:14.803Z,1.23
2018-01-16T05:55:42.269Z,1.33
2018-01-16T05:58:09.752Z,0.90
2018-01-16T06:00:37.544Z,1.83
2018-01-16T06:03:05.069Z,1.30
2018-01-16T06:05:33.446Z,1.43
2018-01-16T06:08:00.911Z,1.93
2018-01-16T06:10:28.487Z,1.50
2018-01-16T06:12:55.949Z,1.30
2018-01-16T06:15:23.404Z,1.17
2018-01-16T06:17:50.884Z,1.57
2018-01-16T06:20:18.556Z,3.00
2018-01-16T06:22:46.005Z,1.53
2018-01-16T06:25:13.520Z,2.10
2018-01-16T06:27:41.304Z,1.98
2018-01-16T06:30:08.759Z,2.13
2018-01-16T06:32:36.555Z,1.67
2018-01-16T06:35:04.028Z,1.50
2018-01-16T06:37:31.555Z,1.90
2018-01-16T06:39:59.881Z,2.50
2018-01-16T06:42:28.250Z,2.80
2018-01-16T06:44:55.723Z,2.33
2018-01-16T06:47:23.659Z,1.70
2018-01-16T06:49:51.488Z,1.77
2018-01-16T06:52:18.942Z,1.60
2018-01-16T06:54:46.384Z,1.73
2018-01-16T06:57:19.076Z,1.90
2018-01-16T06:59:46.520Z,1.80
2018-01-16T07:02:14.644Z,1.45
2018-01-16T07:04:42.117Z,1.33
2018-01-16T07:07:09.588Z,1.20
2018-01-16T07:09:37.250Z,1.40
2018-01-16T07:12:04.696Z,1.97
2018-01-16T07:14:35.910Z,2.57
2018-01-16T07:17:03.337Z,3.03
2018-01-16T07:19:30.826Z,1.50
2018-01-16T07:21:59.773Z,1.67
2018-01-16T07:24:27.275Z,1.30
2018-01-16T07:26:54.740Z,1.47
2018-01-16T07:29:22.224Z,1.30
2018-01-16T07:31:49.657Z,1.10
2018-01-16T07:34:17.133Z,1.20
2018-01-16T07:36:44.634Z,1.20
2018-01-16T07:39:13.063Z,1.08
2018-01-16T07:41:41.280Z,1.20
2018-01-16T07:44:08.719Z,2.23
2018-01-16T07:46:36.501Z,0.80
2018-01-16T07:49:04.121Z,0.93
2018-01-16T07:51:32.077Z,1.05
2018-01-16T07:53:59.564Z,0.85
2018-01-16T07:56:27.003Z,0.80
2018-01-16T07:58:54.499Z,2.50
2018-01-16T08:01:21.966Z,1.25
2018-01-16T08:03:49.475Z,0.82
2018-01-16T08:06:16.934Z,0.77
2018-01-16T08:08:44.415Z,0.80
2018-01-16T08:11:11.866Z,0.80
2018-01-16T08:13:43.760Z,1.27
2018-01-16T08:16:11.229Z,1.40
2018-01-16T08:18:38.669Z,1.00
2018-01-16T08:21:06.104Z,1.17
2018-01-16T08:23:33.607Z,0.90
2018-01-16T08:26:01.044Z,0.80
2018-01-16T08:28:28.506Z,0.70
2018-01-16T08:30:57.457Z,0.98
2018-01-16T08:33:24.900Z,0.90
2018-01-16T08:35:52.405Z,1.15
2018-01-16T08:38:19.841Z,1.25
2018-01-16T08:40:47.309Z,0.80
2018-01-16T08:43:15.014Z,0.90
2018-01-16T08:45:43.263Z,1.08
2018-01-16T08:48:10.740Z,1.37
2018-01-16T08:50:38.945Z,0.75
2018-01-16T08:53:06.428Z,0.93
2018-01-16T08:55:33.857Z,0.80
2018-01-16T08:58:01.297Z,1.10
2018-01-16T09:00:28.799Z,1.10
2018-01-16T09:02:57.156Z,1.17
2018-01-16T09:05:24.637Z,1.20
2018-01-16T09:07:52.072Z,0.80
2018-01-16T09:10:19.532Z,1.15
2018-01-16T09:12:47.337Z,1.00
2018-01-16T09:15:14.784Z,1.20
2018-01-16T09:17:42.244Z,1.27
2018-01-16T09:20:11.017Z,1.10
2018-01-16T09:22:38.507Z,0.80
2018-01-16T09:25:05.974Z,0.70
2018-01-16T09:27:34.205Z,0.80
2018-01-16T09:30:01.681Z,0.93
2018-01-16T09:32:29.492Z,0.85
2018-01-16T09:34:56.956Z,1.43
2018-01-16T09:37:24.435Z,0.87
2018-01-16T09:39:51.893Z,1.00
2018-01-16T09:42:20.763Z,2.23
2018-01-16T09:44:49.912Z,1.30
2018-01-16T09:47:17.364Z,0.88
2018-01-16T09:49:44.828Z,1.10
2018-01-16T09:52:12.329Z,1.20
2018-01-16T09:54:39.773Z,1.73
2018-01-16T09:57:08.162Z,1.10
2018-01-16T09:59:35.621Z,0.85
2018-01-16T10:02:03.080Z,0.90
2018-01-16T10:04:30.562Z,1.83
2018-01-16T10:06:58.129Z,0.70
2018-01-16T10:09:25.589Z,0.80
2018-01-16T10:11:53.026Z,0.80
2018-01-16T10:14:20.493Z,1.00
2018-01-16T10:16:47.987Z,0.80
2018-01-16T10:19:15.436Z,1.00
2018-01-16T10:21:42.901Z,0.80
2018-01-16T10:24:12.034Z,1.02
2018-01-16T10:26:39.492Z,0.70
2018-01-16T10:29:06.962Z,0.80
2018-01-16T10:31:35.341Z,0.90
2018-01-16T10:34:02.813Z,0.83
2018-01-16T10:36:30.309Z,0.70
2018-01-16T10:38:57.821Z,0.62
2018-01-16T10:41:25.285Z,0.70
2018-01-16T10:43:52.974Z,0.70
2018-01-16T10:46:25.021Z,0.70
2018-01-16T10:48:52.480Z,0.90
2018-01-16T10:51:19.939Z,0.90
2018-01-16T10:53:47.415Z,1.20
2018-01-16T10:56:15.521Z,0.70
2018-01-16T10:58:42.983Z,1.00
2018-01-16T11:01:13.657Z,1.00
2018-01-16T11:03:41.114Z,1.08
2018-01-16T11:06:09.016Z,0.73
2018-01-16T11:08:36.516Z,0.80
2018-01-16T11:11:03.965Z,0.73
2018-01-16T11:13:31.418Z,0.70
2018-01-16T11:16:02.094Z,2.10
2018-01-16T11:18:29.528Z,0.68
2018-01-16T11:20:57.053Z,0.80
2018-01-16T11:23:24.528Z,0.90
2018-01-16T11:25:52.940Z,1.08
2018-01-16T11:28:20.407Z,1.33
2018-01-16T11:30:47.870Z,0.60
2018-01-16T11:33:16.084Z,1.00
2018-01-16T11:35:43.593Z,1.20
2018-01-16T11:38:11.049Z,1.10
2018-01-16T11:40:38.513Z,1.60
2018-01-16T11:43:06.018Z,1.10
2018-01-16T11:45:33.474Z,1.10
2018-01-16T11:48:01.505Z,1.02
2018-01-16T11:50:29.730Z,1.23
2018-01-16T11:52:57.195Z,0.90
2018-01-16T11:55:24.640Z,1.12
2018-01-16T11:57:52.103Z,0.98
2018-01-16T12:00:20.513Z,1.00
2018-01-16T12:02:47.984Z,1.00
2018-01-16T12:05:15.588Z,1.23
2018-01-16T12:07:43.012Z,1.20
2018-01-16T12:10:11.252Z,1.05
2018-01-16T12:12:39.636Z,1.10
2018-01-16T12:15:07.124Z,1.00
2018-01-16T12:17:34.573Z,1.27
2018-01-16T12:20:02.029Z,1.43
2018-01-16T12:22:29.522Z,2.17
2018-01-16T12:24:56.949Z,1.45
2018-01-16T12:27:24.416Z,1.08
2018-01-16T12:29:52.142Z,1.37
2018-01-16T12:32:23.265Z,1.07
2018-01-16T12:34:50.905Z,1.55
2018-01-16T12:37:18.333Z,0.70
2018-01-16T12:39:46.574Z,0.50
2018-01-16T12:42:14.445Z,0.60
2018-01-16T12:44:41.925Z,0.80
2018-01-16T12:47:10.141Z,0.73
2018-01-16T12:49:41.015Z,0.80
2018-01-16T12:52:08.476Z,1.08
2018-01-16T12:54:38.369Z,0.85
2018-01-16T12:57:05.834Z,0.60
2018-01-16T12:59:38.389Z,0.60
2018-01-16T13:02:05.892Z,0.67
2018-01-16T13:04:33.358Z,0.77
2018-01-16T13:07:00.844Z,0.80
2018-01-16T13:09:28.315Z,0.60
2018-01-16T13:11:55.767Z,0.90
2018-01-16T13:14:23.505Z,0.60
2018-01-16T13:16:51.899Z,0.60
2018-01-16T13:19:20.113Z,0.98
2018-01-16T13:21:47.673Z,1.12
2018-01-16T13:24:15.765Z,0.80
2018-01-16T13:26:43.237Z,1.10
2018-01-16T13:29:12.072Z,1.12
2018-01-16T13:31:39.776Z,0.77
2018-01-16T13:34:10.364Z,0.90
2018-01-16T13:36:37.805Z,0.70
2018-01-16T13:39:05.259Z,0.77
2018-01-16T13:41:33.825Z,1.10
2018-01-16T13:44:01.369Z,0.63
2018-01-16T13:46:28.921Z,0.70
2018-01-16T13:48:56.323Z,0.80
2018-01-16T13:51:26.809Z,0.60
2018-01-16T13:53:54.260Z,0.60
2018-01-16T13:56:21.742Z,0.93
2018-01-16T13:58:49.194Z,0.70
2018-01-16T14:01:16.634Z,0.60
2018-01-16T14:03:55.092Z,0.88
2018-01-16T14:06:22.524Z,0.60
2018-01-16T14:08:50.016Z,0.87
2018-01-16T14:11:17.488Z,0.90
2018-01-16T14:13:46.644Z,0.70
2018-01-16T14:16:14.166Z,0.70
2018-01-16T14:18:41.654Z,0.73
2018-01-16T14:21:09.136Z,0.93
2018-01-16T14:23:36.567Z,0.70
2018-01-16T14:26:05.626Z,0.50
2018-01-16T14:28:33.061Z,0.70
2018-01-16T14:31:00.544Z,0.57
2018-01-16T14:33:28.022Z,1.33
2018-01-16T14:35:59.150Z,0.60
2018-01-16T14:38:26.600Z,1.10
2018-01-16T14:40:55.273Z,1.30
2018-01-16T14:43:22.735Z,1.73
2018-01-16T14:45:50.228Z,0.60
2018-01-16T14:48:17.664Z,0.70
2018-01-16T14:50:45.417Z,0.80
2018-01-16T14:53:12.892Z,0.80
2018-01-16T14:55:40.345Z,0.70
2018-01-16T14:58:08.499Z,0.90
2018-01-16T15:00:35.981Z,0.63
2018-01-16T15:03:03.964Z,1.00
2018-01-16T15:05:31.425Z,0.80
2018-01-16T15:07:58.914Z,1.17
2018-01-16T15:10:26.382Z,0.93
2018-01-16T15:12:53.847Z,0.60
2018-01-16T15:15:22.732Z,0.60
2018-01-16T15:17:50.220Z,1.00
2018-01-16T15:20:17.672Z,0.93
2018-01-16T15:22:45.110Z,0.85
2018-01-16T15:25:12.582Z,1.00
2018-01-16T15:27:40.836Z,1.23
2018-01-16T15:30:08.440Z,1.17
2018-01-16T15:32:35.952Z,1.00
2018-01-16T15:35:03.392Z,0.77
2018-01-16T15:37:30.813Z,2.92
2018-01-16T15:39:58.321Z,0.83
2018-01-16T15:42:26.003Z,1.10
2018-01-16T15:44:53.460Z,1.10
2018-01-16T15:47:20.956Z,0.80
2018-01-16T15:49:49.204Z,1.00
2018-01-16T15:52:16.685Z,0.90
2018-01-16T15:54:44.132Z,2.90
2018-01-16T15:57:11.572Z,1.12
2018-01-16T15:59:39.805Z,1.95
2018-01-16T16:02:08.196Z,1.42
2018-01-16T16:04:35.706Z,1.40
2018-01-16T16:07:03.958Z,1.83
2018-01-16T16:09:31.453Z,1.43
2018-01-16T16:11:59.091Z,1.30
2018-01-16T16:14:28.258Z,0.90
2018-01-16T16:16:55.736Z,2.10
2018-01-16T16:19:23.206Z,1.30
2018-01-16T16:21:56.413Z,0.85
2018-01-16T16:24:23.883Z,1.60
2018-01-16T16:26:51.350Z,1.20
2018-01-16T16:29:18.842Z,1.10
2018-01-16T16:31:47.312Z,1.30
2018-01-16T16:34:15.277Z,2.20
2018-01-16T16:36:42.830Z,1.43
2018-01-16T16:39:10.317Z,1.20
2018-01-16T16:41:37.788Z,1.10
2018-01-16T16:44:06.992Z,1.30
2018-01-16T16:46:34.431Z,1.00
2018-01-16T16:49:01.929Z,1.35
2018-01-16T16:51:33.230Z,1.00
2018-01-16T16:54:01.316Z,0.82
2018-01-16T16:59:02.729Z,1.30
2018-01-16T17:01:30.186Z,1.10
2018-01-16T17:03:57.920Z,1.37
2018-01-16T17:06:27.044Z,1.92
2018-01-16T17:08:54.645Z,1.70
2018-01-16T17:11:22.137Z,0.97
2018-01-16T17:13:49.605Z,2.17
2018-01-16T17:16:17.824Z,1.30
2018-01-16T17:18:46.064Z,1.60
2018-01-16T17:21:13.525Z,1.73
2018-01-16T17:23:41.053Z,1.23
2018-01-16T17:26:14.205Z,1.10
2018-01-16T17:28:41.715Z,1.30
2018-01-16T17:31:09.152Z,1.27
2018-01-16T17:33:36.596Z,1.50
2018-01-16T17:36:05.897Z,1.63
2018-01-16T17:38:33.414Z,1.50
2018-01-16T17:41:00.882Z,1.50
2018-01-16T17:43:28.343Z,1.30
2018-01-16T17:45:56.013Z,0.80
2018-01-16T17:48:23.459Z,2.20
2018-01-16T17:50:50.953Z,1.20
2018-01-16T17:53:18.575Z,1.10
2018-01-16T17:55:46.045Z,1.10
2018-01-16T17:58:13.526Z,1.87
2018-01-16T18:00:41.002Z,0.97
2018-01-16T18:03:08.480Z,1.50
2018-01-16T18:05:35.939Z,1.43
2018-01-16T18:08:07.438Z,1.20
2018-01-16T18:10:35.208Z,1.07
2018-01-16T18:13:03.541Z,1.02
2018-01-16T18:15:31.031Z,1.03
2018-01-16T18:17:58.522Z,1.30
2018-01-16T18:20:25.969Z,1.10
2018-01-16T18:22:53.436Z,1.30
2018-01-16T18:25:20.929Z,1.35
2018-01-16T18:27:48.470Z,0.90
2018-01-16T18:30:16.680Z,1.25
2018-01-16T18:32:44.161Z,1.13
2018-01-16T18:35:12.442Z,1.10
2018-01-16T18:37:41.597Z,1.30
2018-01-16T18:40:09.045Z,1.10
2018-01-16T18:42:36.568Z,1.92
2018-01-16T18:45:04.034Z,1.25
2018-01-16T18:47:32.244Z,1.00
2018-01-16T18:50:01.259Z,1.70
2018-01-16T18:52:28.729Z,1.43
2018-01-16T18:54:56.156Z,1.20
2018-01-16T18:57:23.608Z,1.48
2018-01-16T18:59:51.073Z,1.00
2018-01-16T19:02:19.457Z,1.00
2018-01-16T19:04:46.975Z,1.37
2018-01-16T19:07:14.495Z,0.90
2018-01-16T19:09:41.929Z,1.17
2018-01-16T19:12:09.474Z,1.12
2018-01-16T19:14:36.936Z,1.02
2018-01-16T19:17:04.421Z,1.10
2018-01-16T19:19:31.904Z,1.52
2018-01-16T19:22:00.127Z,1.57
2018-01-16T19:24:31.881Z,1.10
2018-01-16T19:27:03.716Z,1.23
2018-01-16T19:29:31.200Z,0.90
2018-01-16T19:31:59.476Z,1.23
2018-01-16T19:34:27.441Z,1.30
2018-01-16T19:36:55.514Z,1.58
2018-01-16T19:39:26.402Z,1.42
2018-01-16T19:41:54.220Z,2.03
2018-01-16T19:44:22.728Z,1.62
2018-01-16T19:46:50.251Z,1.47
2018-01-16T19:49:18.326Z,1.60
2018-01-16T19:51:45.769Z,1.07
2018-01-16T19:54:13.260Z,0.80
2018-01-16T19:56:43.527Z,1.00
2018-01-16T19:59:11.739Z,1.00
2018-01-16T20:01:39.412Z,1.00
2018-01-16T20:04:06.926Z,0.70
2018-01-16T20:06:35.162Z,0.98
2018-01-16T20:09:02.597Z,1.00
2018-01-16T20:11:34.235Z,1.47
2018-01-16T20:14:01.794Z,1.68
2018-01-16T20:16:29.286Z,0.88
2018-01-16T20:18:57.292Z,1.40
2018-01-16T20:21:25.501Z,0.70
2018-01-16T20:23:53.018Z,1.27
2018-01-16T20:26:27.628Z,1.08
2018-01-16T20:28:55.166Z,1.40
2018-01-16T20:31:22.688Z,0.87
2018-01-16T20:33:50.237Z,1.15
2018-01-16T20:36:18.494Z,1.20
2018-01-16T20:38:45.964Z,1.33
2018-01-16T20:41:17.898Z,0.98
2018-01-16T20:43:46.645Z,1.25
2018-01-16T20:46:14.168Z,1.20
2018-01-16T20:48:42.857Z,1.00
2018-01-16T20:51:10.408Z,1.00
2018-01-16T20:53:38.094Z,0.80
2018-01-16T20:56:09.531Z,0.90
2018-01-16T20:58:37.168Z,0.90
2018-01-16T21:01:05.226Z,0.93
2018-01-16T21:03:32.720Z,1.37
2018-01-16T21:06:00.160Z,0.70
2018-01-16T21:08:27.682Z,1.20
2018-01-16T21:10:59.460Z,0.80
2018-01-16T21:13:31.008Z,0.90
2018-01-16T21:15:58.499Z,1.10
2018-01-16T21:18:26.612Z,1.17
2018-01-16T21:20:54.078Z,1.00
2018-01-16T21:23:21.577Z,1.33
2018-01-16T21:25:49.098Z,0.97
2018-01-16T21:28:16.622Z,1.20
2018-01-16T21:30:44.192Z,1.27
2018-01-16T21:33:11.737Z,0.70
2018-01-16T21:35:39.213Z,1.87
2018-01-16T21:38:07.465Z,1.17
2018-01-16T21:40:35.688Z,0.98
2018-01-16T21:43:03.179Z,0.73
2018-01-16T21:45:30.647Z,1.10
2018-01-16T21:47:59.407Z,0.80
2018-01-16T21:50:26.878Z,0.70
2018-01-16T21:52:54.420Z,1.00
2018-01-16T21:55:21.951Z,0.90
2018-01-16T21:57:49.381Z,0.90
2018-01-16T22:00:17.052Z,0.70
2018-01-16T22:02:44.488Z,0.70
2018-01-16T22:05:13.948Z,0.90
2018-01-16T22:07:41.451Z,0.80
2018-01-16T22:10:08.979Z,0.80
2018-01-16T22:12:36.451Z,0.90
2018-01-16T22:15:03.931Z,0.90
2018-01-16T22:17:33.123Z,0.93
2018-01-16T22:20:00.674Z,1.00
2018-01-16T22:22:28.891Z,0.85
2018-01-16T22:24:56.420Z,0.75
2018-01-16T22:27:27.282Z,0.70
2018-01-16T22:29:54.761Z,0.63
2018-01-16T22:32:22.274Z,1.10
2018-01-16T22:34:50.545Z,0.73
2018-01-16T22:37:18.781Z,0.70
2018-01-16T22:39:46.996Z,0.93
2018-01-16T22:42:14.721Z,0.80
2018-01-16T22:44:42.158Z,1.00
2018-01-16T22:47:09.635Z,0.70
2018-01-16T22:49:38.612Z,0.93
2018-01-16T22:52:06.045Z,0.95
2018-01-16T22:54:33.544Z,0.62
2018-01-16T22:57:00.982Z,0.80
2018-01-16T22:59:28.493Z,0.90
2018-01-16T23:01:56.112Z,0.73
2018-01-16T23:04:23.544Z,0.60
2018-01-16T23:06:51.008Z,1.05
2018-01-16T23:09:18.460Z,0.83
2018-01-16T23:11:45.931Z,0.70
2018-01-16T23:14:15.060Z,0.95
2018-01-16T23:16:42.513Z,0.70
2018-01-16T23:19:09.981Z,0.60
2018-01-16T23:21:37.419Z,0.80
2018-01-16T23:24:05.028Z,1.10
2018-01-16T23:26:33.420Z,0.93
2018-01-16T23:29:04.295Z,1.07
2018-01-16T23:31:31.802Z,0.60
2018-01-16T23:33:59.233Z,0.80
2018-01-16T23:36:26.726Z,0.80
2018-01-16T23:38:54.198Z,0.50
2018-01-16T23:41:21.656Z,0.80
2018-01-16T23:43:52.509Z,0.60
2018-01-16T23:46:19.998Z,0.80
2018-01-16T23:48:47.485Z,0.80
2018-01-16T23:51:14.965Z,0.67
2018-01-16T23:53:42.437Z,0.77
2018-01-16T23:56:09.949Z,0.70
2018-01-16T23:58:40.621Z,0.82
